sensor_id;sensor_type;location;lat;lon;timestamp;P1;durP1;ratioP1;P2;durP2;ratioP2
27025;SDS011;14565;48.626;8.978;2022-12-16T00:00:05;59.85;;;30.98;;
27025;SDS011;14565;48.626;8.978;2022-12-16T00:02:32;57.85;;;28.17;;
27025;SDS011;14565;48.626;8.978;2022-12-16T00:04:58;64.97;;;31.00;;
27025;SDS011;14565;48.626;8.978;2022-12-16T00:07:24;64.43;;;30.27;;
27025;SDS011;14565;48.626;8.978;2022-12-16T00:09:50;68.55;;;30.48;;
27025;SDS011;14565;48.626;8.978;2022-12-16T00:12:16;65.57;;;31.25;;
27025;SDS011;14565;48.626;8.978;2022-12-16T00:14:42;74.30;;;33.10;;
27025;SDS011;14565;48.626;8.978;2022-12-16T00:17:08;68.20;;;34.17;;
27025;SDS011;14565;48.626;8.978;2022-12-16T00:19:34;71.00;;;33.92;;
27025;SDS011;14565;48.626;8.978;2022-12-16T00:22:00;66.38;;;33.42;;
27025;SDS011;14565;48.626;8.978;2022-12-16T00:24:26;63.38;;;33.05;;
27025;SDS011;14565;48.626;8.978;2022-12-16T00:26:55;64.65;;;31.63;;
27025;SDS011;14565;48.626;8.978;2022-12-16T00:29:21;62.72;;;32.40;;
27025;SDS011;14565;48.626;8.978;2022-12-16T00:31:47;65.90;;;32.70;;
27025;SDS011;14565;48.626;8.978;2022-12-16T00:34:14;65.30;;;32.00;;
27025;SDS011;14565;48.626;8.978;2022-12-16T00:36:41;66.03;;;32.67;;
27025;SDS011;14565;48.626;8.978;2022-12-16T00:39:07;64.60;;;32.05;;
27025;SDS011;14565;48.626;8.978;2022-12-16T00:41:33;63.78;;;32.63;;
27025;SDS011;14565;48.626;8.978;2022-12-16T00:44:00;68.22;;;30.05;;
27025;SDS011;14565;48.626;8.978;2022-12-16T00:46:27;62.77;;;30.50;;
27025;SDS011;14565;48.626;8.978;2022-12-16T00:48:53;60.08;;;30.50;;
27025;SDS011;14565;48.626;8.978;2022-12-16T00:51:19;68.40;;;32.22;;
27025;SDS011;14565;48.626;8.978;2022-12-16T00:53:45;59.65;;;31.13;;
27025;SDS011;14565;48.626;8.978;2022-12-16T00:56:12;63.55;;;31.75;;
27025;SDS011;14565;48.626;8.978;2022-12-16T00:58:47;61.15;;;29.70;;
27025;SDS011;14565;48.626;8.978;2022-12-16T01:01:13;66.55;;;30.88;;
27025;SDS011;14565;48.626;8.978;2022-12-16T01:03:39;62.38;;;30.02;;
27025;SDS011;14565;48.626;8.978;2022-12-16T01:06:09;63.75;;;31.38;;
27025;SDS011;14565;48.626;8.978;2022-12-16T01:08:36;62.13;;;30.30;;
27025;SDS011;14565;48.626;8.978;2022-12-16T01:11:02;58.95;;;30.58;;
27025;SDS011;14565;48.626;8.978;2022-12-16T01:13:28;71.28;;;31.75;;
27025;SDS011;14565;48.626;8.978;2022-12-16T01:15:57;67.75;;;31.20;;
27025;SDS011;14565;48.626;8.978;2022-12-16T01:18:23;61.00;;;30.88;;
27025;SDS011;14565;48.626;8.978;2022-12-16T01:20:50;62.00;;;30.40;;
27025;SDS011;14565;48.626;8.978;2022-12-16T01:23:16;63.28;;;29.63;;
27025;SDS011;14565;48.626;8.978;2022-12-16T01:25:42;60.05;;;30.90;;
27025;SDS011;14565;48.626;8.978;2022-12-16T01:28:08;64.53;;;28.92;;
27025;SDS011;14565;48.626;8.978;2022-12-16T01:30:34;58.42;;;28.90;;
27025;SDS011;14565;48.626;8.978;2022-12-16T01:33:00;59.30;;;28.92;;
27025;SDS011;14565;48.626;8.978;2022-12-16T01:35:26;58.80;;;29.38;;
27025;SDS011;14565;48.626;8.978;2022-12-16T01:37:52;57.28;;;30.17;;
27025;SDS011;14565;48.626;8.978;2022-12-16T01:40:20;58.35;;;28.83;;
27025;SDS011;14565;48.626;8.978;2022-12-16T01:42:47;58.40;;;28.05;;
27025;SDS011;14565;48.626;8.978;2022-12-16T01:45:32;58.97;;;29.25;;
27025;SDS011;14565;48.626;8.978;2022-12-16T01:48:01;55.50;;;27.50;;
27025;SDS011;14565;48.626;8.978;2022-12-16T01:50:28;56.72;;;27.80;;
27025;SDS011;14565;48.626;8.978;2022-12-16T01:52:55;59.17;;;28.95;;
27025;SDS011;14565;48.626;8.978;2022-12-16T01:55:27;55.80;;;26.92;;
27025;SDS011;14565;48.626;8.978;2022-12-16T01:57:57;64.43;;;30.02;;
27025;SDS011;14565;48.626;8.978;2022-12-16T02:00:26;57.30;;;27.52;;
27025;SDS011;14565;48.626;8.978;2022-12-16T02:02:52;57.92;;;28.88;;
27025;SDS011;14565;48.626;8.978;2022-12-16T02:05:18;60.88;;;29.33;;
27025;SDS011;14565;48.626;8.978;2022-12-16T02:07:55;58.25;;;28.98;;
27025;SDS011;14565;48.626;8.978;2022-12-16T02:10:34;58.30;;;29.02;;
27025;SDS011;14565;48.626;8.978;2022-12-16T02:20:59;55.10;;;27.33;;
27025;SDS011;14565;48.626;8.978;2022-12-16T02:28:33;56.75;;;27.42;;
27025;SDS011;14565;48.626;8.978;2022-12-16T02:36:13;54.58;;;27.08;;
27025;SDS011;14565;48.626;8.978;2022-12-16T02:44:06;54.30;;;26.88;;
27025;SDS011;14565;48.626;8.978;2022-12-16T02:46:37;49.75;;;26.00;;
27025;SDS011;14565;48.626;8.978;2022-12-16T02:49:04;50.67;;;25.70;;
27025;SDS011;14565;48.626;8.978;2022-12-16T02:51:31;55.10;;;26.98;;
27025;SDS011;14565;48.626;8.978;2022-12-16T02:59:26;55.40;;;26.60;;
27025;SDS011;14565;48.626;8.978;2022-12-16T03:02:10;57.72;;;26.30;;
27025;SDS011;14565;48.626;8.978;2022-12-16T03:04:54;55.10;;;24.95;;
27025;SDS011;14565;48.626;8.978;2022-12-16T03:07:23;59.65;;;26.55;;
27025;SDS011;14565;48.626;8.978;2022-12-16T03:09:50;51.67;;;25.52;;
27025;SDS011;14565;48.626;8.978;2022-12-16T03:12:18;55.72;;;26.23;;
27025;SDS011;14565;48.626;8.978;2022-12-16T03:14:45;56.07;;;27.13;;
27025;SDS011;14565;48.626;8.978;2022-12-16T03:17:13;59.30;;;26.38;;
27025;SDS011;14565;48.626;8.978;2022-12-16T03:19:40;51.55;;;25.42;;
27025;SDS011;14565;48.626;8.978;2022-12-16T03:22:17;50.83;;;26.30;;
27025;SDS011;14565;48.626;8.978;2022-12-16T03:24:45;50.28;;;25.60;;
27025;SDS011;14565;48.626;8.978;2022-12-16T03:29:42;49.75;;;24.83;;
27025;SDS011;14565;48.626;8.978;2022-12-16T03:32:14;46.08;;;22.60;;
27025;SDS011;14565;48.626;8.978;2022-12-16T03:34:52;51.20;;;24.38;;
27025;SDS011;14565;48.626;8.978;2022-12-16T03:37:21;54.17;;;25.02;;
27025;SDS011;14565;48.626;8.978;2022-12-16T03:39:50;47.70;;;22.85;;
27025;SDS011;14565;48.626;8.978;2022-12-16T03:42:17;49.13;;;24.42;;
27025;SDS011;14565;48.626;8.978;2022-12-16T03:44:44;48.90;;;25.02;;
27025;SDS011;14565;48.626;8.978;2022-12-16T03:47:10;46.67;;;23.63;;
27025;SDS011;14565;48.626;8.978;2022-12-16T03:49:37;45.95;;;23.70;;
27025;SDS011;14565;48.626;8.978;2022-12-16T03:52:03;46.63;;;24.00;;
27025;SDS011;14565;48.626;8.978;2022-12-16T03:54:29;55.65;;;24.85;;
27025;SDS011;14565;48.626;8.978;2022-12-16T03:56:55;45.15;;;24.20;;
27025;SDS011;14565;48.626;8.978;2022-12-16T03:59:21;46.40;;;23.52;;
27025;SDS011;14565;48.626;8.978;2022-12-16T04:01:47;46.58;;;24.77;;
27025;SDS011;14565;48.626;8.978;2022-12-16T04:04:14;48.40;;;24.23;;
27025;SDS011;14565;48.626;8.978;2022-12-16T04:06:40;50.30;;;24.40;;
27025;SDS011;14565;48.626;8.978;2022-12-16T04:09:06;51.50;;;25.38;;
27025;SDS011;14565;48.626;8.978;2022-12-16T04:11:32;44.10;;;23.75;;
27025;SDS011;14565;48.626;8.978;2022-12-16T04:14:17;50.55;;;24.73;;
27025;SDS011;14565;48.626;8.978;2022-12-16T04:17:01;48.65;;;24.13;;
27025;SDS011;14565;48.626;8.978;2022-12-16T04:19:47;48.10;;;24.30;;
27025;SDS011;14565;48.626;8.978;2022-12-16T04:22:33;49.33;;;23.80;;
27025;SDS011;14565;48.626;8.978;2022-12-16T04:25:22;50.67;;;25.92;;
27025;SDS011;14565;48.626;8.978;2022-12-16T04:27:48;51.10;;;24.65;;
27025;SDS011;14565;48.626;8.978;2022-12-16T04:30:15;47.72;;;23.75;;
27025;SDS011;14565;48.626;8.978;2022-12-16T04:33:06;52.63;;;24.08;;
27025;SDS011;14565;48.626;8.978;2022-12-16T04:35:49;49.25;;;23.55;;
27025;SDS011;14565;48.626;8.978;2022-12-16T04:38:34;42.85;;;21.73;;
27025;SDS011;14565;48.626;8.978;2022-12-16T04:41:18;68.65;;;31.00;;
27025;SDS011;14565;48.626;8.978;2022-12-16T04:44:03;79.22;;;33.40;;
27025;SDS011;14565;48.626;8.978;2022-12-16T04:46:48;52.13;;;26.05;;
27025;SDS011;14565;48.626;8.978;2022-12-16T04:49:32;45.92;;;22.50;;
27025;SDS011;14565;48.626;8.978;2022-12-16T04:52:17;46.08;;;23.00;;
27025;SDS011;14565;48.626;8.978;2022-12-16T04:55:01;45.40;;;22.38;;
27025;SDS011;14565;48.626;8.978;2022-12-16T04:57:47;41.50;;;21.75;;
27025;SDS011;14565;48.626;8.978;2022-12-16T05:00:32;38.30;;;21.50;;
27025;SDS011;14565;48.626;8.978;2022-12-16T05:03:17;40.50;;;19.92;;
27025;SDS011;14565;48.626;8.978;2022-12-16T05:06:01;37.30;;;20.02;;
27025;SDS011;14565;48.626;8.978;2022-12-16T05:08:46;38.80;;;20.08;;
27025;SDS011;14565;48.626;8.978;2022-12-16T05:11:31;40.70;;;20.27;;
27025;SDS011;14565;48.626;8.978;2022-12-16T05:14:15;38.45;;;19.45;;
27025;SDS011;14565;48.626;8.978;2022-12-16T05:17:00;42.22;;;20.15;;
27025;SDS011;14565;48.626;8.978;2022-12-16T05:19:44;39.80;;;19.48;;
27025;SDS011;14565;48.626;8.978;2022-12-16T05:22:29;42.45;;;21.60;;
27025;SDS011;14565;48.626;8.978;2022-12-16T05:25:14;39.00;;;21.15;;
27025;SDS011;14565;48.626;8.978;2022-12-16T05:27:58;45.95;;;21.55;;
27025;SDS011;14565;48.626;8.978;2022-12-16T05:30:43;39.72;;;20.58;;
27025;SDS011;14565;48.626;8.978;2022-12-16T05:33:27;42.83;;;23.40;;
27025;SDS011;14565;48.626;8.978;2022-12-16T05:36:12;38.15;;;21.40;;
27025;SDS011;14565;48.626;8.978;2022-12-16T05:38:57;39.92;;;21.20;;
27025;SDS011;14565;48.626;8.978;2022-12-16T05:41:41;43.33;;;21.63;;
27025;SDS011;14565;48.626;8.978;2022-12-16T05:44:26;38.78;;;20.17;;
27025;SDS011;14565;48.626;8.978;2022-12-16T05:47:11;43.13;;;19.77;;
27025;SDS011;14565;48.626;8.978;2022-12-16T05:49:56;42.10;;;22.52;;
27025;SDS011;14565;48.626;8.978;2022-12-16T05:52:46;43.45;;;20.88;;
27025;SDS011;14565;48.626;8.978;2022-12-16T05:55:31;43.13;;;21.42;;
27025;SDS011;14565;48.626;8.978;2022-12-16T05:58:15;68.78;;;31.70;;
27025;SDS011;14565;48.626;8.978;2022-12-16T06:01:00;42.85;;;20.90;;
27025;SDS011;14565;48.626;8.978;2022-12-16T06:03:44;47.75;;;26.02;;
27025;SDS011;14565;48.626;8.978;2022-12-16T06:06:29;33.53;;;18.73;;
27025;SDS011;14565;48.626;8.978;2022-12-16T06:09:13;35.75;;;18.58;;
27025;SDS011;14565;48.626;8.978;2022-12-16T06:11:58;38.22;;;18.60;;
27025;SDS011;14565;48.626;8.978;2022-12-16T06:14:43;35.15;;;17.70;;
27025;SDS011;14565;48.626;8.978;2022-12-16T06:17:27;34.58;;;17.63;;
27025;SDS011;14565;48.626;8.978;2022-12-16T06:20:12;35.08;;;18.25;;
27025;SDS011;14565;48.626;8.978;2022-12-16T06:22:56;35.08;;;19.27;;
27025;SDS011;14565;48.626;8.978;2022-12-16T06:25:41;32.45;;;17.13;;
27025;SDS011;14565;48.626;8.978;2022-12-16T06:28:26;31.20;;;15.60;;
27025;SDS011;14565;48.626;8.978;2022-12-16T06:31:10;32.78;;;16.73;;
27025;SDS011;14565;48.626;8.978;2022-12-16T06:33:55;34.20;;;18.45;;
27025;SDS011;14565;48.626;8.978;2022-12-16T06:36:40;34.13;;;16.40;;
27025;SDS011;14565;48.626;8.978;2022-12-16T06:39:24;34.45;;;14.90;;
27025;SDS011;14565;48.626;8.978;2022-12-16T06:42:29;29.75;;;14.82;;
27025;SDS011;14565;48.626;8.978;2022-12-16T06:45:13;29.30;;;15.13;;
27025;SDS011;14565;48.626;8.978;2022-12-16T06:47:58;29.88;;;14.32;;
27025;SDS011;14565;48.626;8.978;2022-12-16T06:50:43;32.97;;;15.40;;
27025;SDS011;14565;48.626;8.978;2022-12-16T06:53:28;29.67;;;15.80;;
27025;SDS011;14565;48.626;8.978;2022-12-16T06:56:13;32.70;;;16.23;;
27025;SDS011;14565;48.626;8.978;2022-12-16T06:58:57;27.60;;;15.65;;
27025;SDS011;14565;48.626;8.978;2022-12-16T07:01:42;35.25;;;15.38;;
27025;SDS011;14565;48.626;8.978;2022-12-16T07:04:26;33.75;;;16.73;;
27025;SDS011;14565;48.626;8.978;2022-12-16T07:07:21;33.30;;;15.05;;
27025;SDS011;14565;48.626;8.978;2022-12-16T07:10:06;33.15;;;16.30;;
27025;SDS011;14565;48.626;8.978;2022-12-16T07:12:51;32.92;;;17.15;;
27025;SDS011;14565;48.626;8.978;2022-12-16T07:15:40;37.75;;;16.77;;
27025;SDS011;14565;48.626;8.978;2022-12-16T07:18:24;31.42;;;16.83;;
27025;SDS011;14565;48.626;8.978;2022-12-16T07:21:09;34.80;;;17.95;;
27025;SDS011;14565;48.626;8.978;2022-12-16T07:23:54;30.88;;;16.98;;
27025;SDS011;14565;48.626;8.978;2022-12-16T07:26:38;29.63;;;16.30;;
27025;SDS011;14565;48.626;8.978;2022-12-16T07:29:23;29.92;;;16.75;;
27025;SDS011;14565;48.626;8.978;2022-12-16T07:32:08;33.65;;;16.10;;
27025;SDS011;14565;48.626;8.978;2022-12-16T07:34:52;29.90;;;15.77;;
27025;SDS011;14565;48.626;8.978;2022-12-16T07:37:37;30.17;;;15.82;;
27025;SDS011;14565;48.626;8.978;2022-12-16T07:40:22;32.42;;;15.65;;
27025;SDS011;14565;48.626;8.978;2022-12-16T07:43:07;28.92;;;15.13;;
27025;SDS011;14565;48.626;8.978;2022-12-16T07:45:52;27.30;;;15.50;;
27025;SDS011;14565;48.626;8.978;2022-12-16T07:48:36;30.27;;;15.10;;
27025;SDS011;14565;48.626;8.978;2022-12-16T07:51:21;33.83;;;15.32;;
27025;SDS011;14565;48.626;8.978;2022-12-16T07:54:06;30.33;;;14.75;;
27025;SDS011;14565;48.626;8.978;2022-12-16T07:56:50;34.10;;;15.57;;
27025;SDS011;14565;48.626;8.978;2022-12-16T07:59:35;29.52;;;16.02;;
27025;SDS011;14565;48.626;8.978;2022-12-16T08:02:20;23.45;;;13.95;;
27025;SDS011;14565;48.626;8.978;2022-12-16T08:05:04;28.27;;;14.10;;
27025;SDS011;14565;48.626;8.978;2022-12-16T08:07:48;28.63;;;14.57;;
27025;SDS011;14565;48.626;8.978;2022-12-16T08:10:33;25.13;;;13.93;;
27025;SDS011;14565;48.626;8.978;2022-12-16T08:13:17;27.90;;;14.65;;
27025;SDS011;14565;48.626;8.978;2022-12-16T08:16:02;30.33;;;15.23;;
27025;SDS011;14565;48.626;8.978;2022-12-16T08:18:47;31.25;;;15.48;;
27025;SDS011;14565;48.626;8.978;2022-12-16T08:21:31;27.60;;;14.30;;
27025;SDS011;14565;48.626;8.978;2022-12-16T08:24:16;29.60;;;15.02;;
27025;SDS011;14565;48.626;8.978;2022-12-16T08:27:00;30.55;;;14.60;;
27025;SDS011;14565;48.626;8.978;2022-12-16T08:29:45;25.23;;;14.23;;
27025;SDS011;14565;48.626;8.978;2022-12-16T08:32:29;27.85;;;14.23;;
27025;SDS011;14565;48.626;8.978;2022-12-16T08:35:14;29.08;;;14.23;;
27025;SDS011;14565;48.626;8.978;2022-12-16T08:37:59;27.23;;;13.68;;
27025;SDS011;14565;48.626;8.978;2022-12-16T08:40:43;27.52;;;15.00;;
27025;SDS011;14565;48.626;8.978;2022-12-16T08:43:30;26.75;;;15.00;;
27025;SDS011;14565;48.626;8.978;2022-12-16T08:46:15;28.30;;;14.60;;
27025;SDS011;14565;48.626;8.978;2022-12-16T08:48:59;27.38;;;14.32;;
27025;SDS011;14565;48.626;8.978;2022-12-16T08:51:44;27.67;;;14.45;;
27025;SDS011;14565;48.626;8.978;2022-12-16T08:54:29;27.70;;;15.50;;
27025;SDS011;14565;48.626;8.978;2022-12-16T08:57:14;23.95;;;13.88;;
27025;SDS011;14565;48.626;8.978;2022-12-16T08:59:58;30.45;;;15.32;;
27025;SDS011;14565;48.626;8.978;2022-12-16T09:02:43;28.58;;;15.27;;
27025;SDS011;14565;48.626;8.978;2022-12-16T09:05:28;27.67;;;14.32;;
27025;SDS011;14565;48.626;8.978;2022-12-16T09:08:12;23.15;;;13.38;;
27025;SDS011;14565;48.626;8.978;2022-12-16T09:11:00;27.58;;;14.23;;
27025;SDS011;14565;48.626;8.978;2022-12-16T09:13:45;26.33;;;14.07;;
27025;SDS011;14565;48.626;8.978;2022-12-16T09:16:29;25.27;;;13.55;;
27025;SDS011;14565;48.626;8.978;2022-12-16T09:19:14;24.33;;;12.95;;
27025;SDS011;14565;48.626;8.978;2022-12-16T09:21:58;23.85;;;12.85;;
27025;SDS011;14565;48.626;8.978;2022-12-16T09:24:43;23.77;;;12.13;;
27025;SDS011;14565;48.626;8.978;2022-12-16T09:27:28;25.15;;;12.88;;
27025;SDS011;14565;48.626;8.978;2022-12-16T09:30:12;23.83;;;12.30;;
27025;SDS011;14565;48.626;8.978;2022-12-16T09:32:57;23.92;;;11.88;;
27025;SDS011;14565;48.626;8.978;2022-12-16T09:35:42;29.67;;;13.57;;
27025;SDS011;14565;48.626;8.978;2022-12-16T09:38:26;23.55;;;12.30;;
27025;SDS011;14565;48.626;8.978;2022-12-16T09:47:11;23.13;;;12.35;;
27025;SDS011;14565;48.626;8.978;2022-12-16T09:49:59;26.65;;;13.90;;
27025;SDS011;14565;48.626;8.978;2022-12-16T09:52:49;24.30;;;12.30;;
27025;SDS011;14565;48.626;8.978;2022-12-16T09:55:39;20.67;;;11.30;;
27025;SDS011;14565;48.626;8.978;2022-12-16T09:58:25;19.20;;;11.15;;
27025;SDS011;14565;48.626;8.978;2022-12-16T10:01:11;24.15;;;12.88;;
27025;SDS011;14565;48.626;8.978;2022-12-16T10:03:57;18.38;;;10.13;;
27025;SDS011;14565;48.626;8.978;2022-12-16T10:06:50;15.65;;;9.07;;
27025;SDS011;14565;48.626;8.978;2022-12-16T10:21:02;21.05;;;10.45;;
27025;SDS011;14565;48.626;8.978;2022-12-16T10:24:38;25.48;;;10.60;;
27025;SDS011;14565;48.626;8.978;2022-12-16T10:26:55;22.38;;;9.25;;
27025;SDS011;14565;48.626;8.978;2022-12-16T10:29:43;19.58;;;10.13;;
27025;SDS011;14565;48.626;8.978;2022-12-16T10:32:33;14.68;;;8.50;;
27025;SDS011;14565;48.626;8.978;2022-12-16T10:35:21;19.88;;;9.20;;
27025;SDS011;14565;48.626;8.978;2022-12-16T10:38:13;18.48;;;9.82;;
27025;SDS011;14565;48.626;8.978;2022-12-16T10:40:59;21.25;;;10.20;;
27025;SDS011;14565;48.626;8.978;2022-12-16T10:43:45;21.00;;;10.60;;
27025;SDS011;14565;48.626;8.978;2022-12-16T10:46:31;20.52;;;10.80;;
27025;SDS011;14565;48.626;8.978;2022-12-16T10:49:16;18.08;;;9.82;;
27025;SDS011;14565;48.626;8.978;2022-12-16T10:52:01;19.33;;;10.65;;
27025;SDS011;14565;48.626;8.978;2022-12-16T10:55:01;19.67;;;10.32;;
27025;SDS011;14565;48.626;8.978;2022-12-16T10:57:51;19.60;;;10.02;;
27025;SDS011;14565;48.626;8.978;2022-12-16T11:03:25;17.40;;;10.45;;
27025;SDS011;14565;48.626;8.978;2022-12-16T11:06:12;17.95;;;9.90;;
27025;SDS011;14565;48.626;8.978;2022-12-16T11:12:12;18.42;;;9.85;;
27025;SDS011;14565;48.626;8.978;2022-12-16T11:14:57;18.95;;;10.25;;
27025;SDS011;14565;48.626;8.978;2022-12-16T11:17:44;21.88;;;9.93;;
27025;SDS011;14565;48.626;8.978;2022-12-16T11:20:44;19.65;;;10.20;;
27025;SDS011;14565;48.626;8.978;2022-12-16T11:23:29;27.48;;;13.10;;
27025;SDS011;14565;48.626;8.978;2022-12-16T11:26:17;24.27;;;11.68;;
27025;SDS011;14565;48.626;8.978;2022-12-16T11:31:53;24.20;;;10.82;;
27025;SDS011;14565;48.626;8.978;2022-12-16T11:34:40;18.75;;;10.30;;
27025;SDS011;14565;48.626;8.978;2022-12-16T11:37:33;16.65;;;9.82;;
27025;SDS011;14565;48.626;8.978;2022-12-16T11:40:19;18.67;;;8.45;;
27025;SDS011;14565;48.626;8.978;2022-12-16T11:43:04;19.60;;;10.15;;
27025;SDS011;14565;48.626;8.978;2022-12-16T11:45:50;16.75;;;9.07;;
27025;SDS011;14565;48.626;8.978;2022-12-16T11:48:43;17.65;;;9.05;;
27025;SDS011;14565;48.626;8.978;2022-12-16T11:51:29;19.60;;;9.80;;
27025;SDS011;14565;48.626;8.978;2022-12-16T11:54:25;15.20;;;9.03;;
27025;SDS011;14565;48.626;8.978;2022-12-16T11:57:16;16.13;;;8.85;;
27025;SDS011;14565;48.626;8.978;2022-12-16T12:00:02;17.00;;;8.50;;
27025;SDS011;14565;48.626;8.978;2022-12-16T12:05:37;19.38;;;9.60;;
27025;SDS011;14565;48.626;8.978;2022-12-16T12:11:33;19.08;;;9.80;;
27025;SDS011;14565;48.626;8.978;2022-12-16T12:14:27;14.80;;;8.95;;
27025;SDS011;14565;48.626;8.978;2022-12-16T12:23:05;20.80;;;9.90;;
27025;SDS011;14565;48.626;8.978;2022-12-16T12:26:24;18.35;;;9.57;;
27025;SDS011;14565;48.626;8.978;2022-12-16T12:29:06;20.58;;;9.75;;
27025;SDS011;14565;48.626;8.978;2022-12-16T12:32:14;19.40;;;9.93;;
27025;SDS011;14565;48.626;8.978;2022-12-16T12:37:47;19.10;;;10.05;;
27025;SDS011;14565;48.626;8.978;2022-12-16T12:46:32;13.88;;;7.10;;
27025;SDS011;14565;48.626;8.978;2022-12-16T12:49:41;13.52;;;7.07;;
27025;SDS011;14565;48.626;8.978;2022-12-16T12:55:27;15.25;;;8.18;;
27025;SDS011;14565;48.626;8.978;2022-12-16T12:58:16;16.08;;;7.35;;
27025;SDS011;14565;48.626;8.978;2022-12-16T13:01:01;15.68;;;8.15;;
27025;SDS011;14565;48.626;8.978;2022-12-16T13:03:53;13.55;;;7.05;;
27025;SDS011;14565;48.626;8.978;2022-12-16T13:06:38;15.27;;;8.63;;
27025;SDS011;14565;48.626;8.978;2022-12-16T13:15:07;13.48;;;6.80;;
27025;SDS011;14565;48.626;8.978;2022-12-16T13:20:45;13.50;;;7.60;;
27025;SDS011;14565;48.626;8.978;2022-12-16T13:26:15;15.00;;;7.40;;
27025;SDS011;14565;48.626;8.978;2022-12-16T13:32:21;21.75;;;10.98;;
27025;SDS011;14565;48.626;8.978;2022-12-16T13:37:52;14.13;;;8.18;;
27025;SDS011;14565;48.626;8.978;2022-12-16T13:43:52;25.73;;;11.60;;
27025;SDS011;14565;48.626;8.978;2022-12-16T13:46:39;26.13;;;11.57;;
27025;SDS011;14565;48.626;8.978;2022-12-16T13:52:52;16.42;;;8.05;;
27025;SDS011;14565;48.626;8.978;2022-12-16T13:55:40;14.60;;;7.47;;
27025;SDS011;14565;48.626;8.978;2022-12-16T14:01:21;14.93;;;7.38;;
27025;SDS011;14565;48.626;8.978;2022-12-16T14:04:07;15.77;;;8.63;;
27025;SDS011;14565;48.626;8.978;2022-12-16T14:06:53;14.00;;;7.78;;
27025;SDS011;14565;48.626;8.978;2022-12-16T14:09:40;18.77;;;7.07;;
27025;SDS011;14565;48.626;8.978;2022-12-16T14:12:39;15.38;;;8.20;;
27025;SDS011;14565;48.626;8.978;2022-12-16T14:21:15;14.07;;;7.38;;
27025;SDS011;14565;48.626;8.978;2022-12-16T14:24:07;18.70;;;9.05;;
27025;SDS011;14565;48.626;8.978;2022-12-16T14:26:55;15.95;;;8.43;;
27025;SDS011;14565;48.626;8.978;2022-12-16T14:29:41;18.83;;;8.95;;
27025;SDS011;14565;48.626;8.978;2022-12-16T14:32:28;18.77;;;9.90;;
27025;SDS011;14565;48.626;8.978;2022-12-16T14:35:15;14.85;;;8.10;;
27025;SDS011;14565;48.626;8.978;2022-12-16T14:38:11;13.48;;;8.32;;
27025;SDS011;14565;48.626;8.978;2022-12-16T14:40:57;15.83;;;7.80;;
27025;SDS011;14565;48.626;8.978;2022-12-16T14:43:41;14.88;;;7.78;;
27025;SDS011;14565;48.626;8.978;2022-12-16T14:46:27;12.82;;;7.05;;
27025;SDS011;14565;48.626;8.978;2022-12-16T14:52:08;12.10;;;7.03;;
27025;SDS011;14565;48.626;8.978;2022-12-16T14:54:56;10.23;;;6.18;;
27025;SDS011;14565;48.626;8.978;2022-12-16T14:57:40;12.75;;;7.03;;
27025;SDS011;14565;48.626;8.978;2022-12-16T15:00:25;13.02;;;5.97;;
27025;SDS011;14565;48.626;8.978;2022-12-16T15:05:54;15.13;;;7.07;;
27025;SDS011;14565;48.626;8.978;2022-12-16T15:08:53;11.73;;;6.88;;
27025;SDS011;14565;48.626;8.978;2022-12-16T15:11:39;11.63;;;6.43;;
27025;SDS011;14565;48.626;8.978;2022-12-16T15:14:26;13.82;;;6.78;;
27025;SDS011;14565;48.626;8.978;2022-12-16T15:17:22;10.88;;;6.25;;
27025;SDS011;14565;48.626;8.978;2022-12-16T15:20:16;11.73;;;6.80;;
27025;SDS011;14565;48.626;8.978;2022-12-16T15:23:02;13.40;;;7.03;;
27025;SDS011;14565;48.626;8.978;2022-12-16T15:25:48;14.38;;;7.68;;
27025;SDS011;14565;48.626;8.978;2022-12-16T15:31:25;13.52;;;7.78;;
27025;SDS011;14565;48.626;8.978;2022-12-16T15:37:22;14.13;;;7.30;;
27025;SDS011;14565;48.626;8.978;2022-12-16T15:40:18;12.93;;;6.78;;
27025;SDS011;14565;48.626;8.978;2022-12-16T15:43:03;12.63;;;5.95;;
27025;SDS011;14565;48.626;8.978;2022-12-16T15:45:48;14.45;;;7.53;;
27025;SDS011;14565;48.626;8.978;2022-12-16T15:48:33;16.60;;;7.50;;
27025;SDS011;14565;48.626;8.978;2022-12-16T15:54:20;22.35;;;9.70;;
27025;SDS011;14565;48.626;8.978;2022-12-16T15:57:24;19.58;;;10.00;;
27025;SDS011;14565;48.626;8.978;2022-12-16T16:03:26;19.35;;;9.10;;
27025;SDS011;14565;48.626;8.978;2022-12-16T16:06:15;19.35;;;10.13;;
27025;SDS011;14565;48.626;8.978;2022-12-16T16:09:00;22.58;;;11.15;;
27025;SDS011;14565;48.626;8.978;2022-12-16T16:11:45;18.38;;;8.98;;
27025;SDS011;14565;48.626;8.978;2022-12-16T16:14:46;17.40;;;9.27;;
27025;SDS011;14565;48.626;8.978;2022-12-16T16:17:31;19.10;;;10.43;;
27025;SDS011;14565;48.626;8.978;2022-12-16T16:20:16;24.60;;;11.38;;
27025;SDS011;14565;48.626;8.978;2022-12-16T16:23:01;23.90;;;11.07;;
27025;SDS011;14565;48.626;8.978;2022-12-16T16:25:47;25.60;;;13.50;;
27025;SDS011;14565;48.626;8.978;2022-12-16T16:28:32;23.10;;;11.20;;
27025;SDS011;14565;48.626;8.978;2022-12-16T16:31:19;23.08;;;11.63;;
27025;SDS011;14565;48.626;8.978;2022-12-16T16:34:04;21.05;;;10.95;;
27025;SDS011;14565;48.626;8.978;2022-12-16T16:36:50;24.17;;;12.27;;
27025;SDS011;14565;48.626;8.978;2022-12-16T16:39:35;36.90;;;18.15;;
27025;SDS011;14565;48.626;8.978;2022-12-16T16:42:20;43.45;;;21.65;;
27025;SDS011;14565;48.626;8.978;2022-12-16T16:45:05;28.30;;;14.18;;
27025;SDS011;14565;48.626;8.978;2022-12-16T16:47:49;32.38;;;17.65;;
27025;SDS011;14565;48.626;8.978;2022-12-16T16:50:34;25.23;;;12.20;;
27025;SDS011;14565;48.626;8.978;2022-12-16T16:53:19;22.35;;;10.20;;
27025;SDS011;14565;48.626;8.978;2022-12-16T16:56:03;21.50;;;11.07;;
27025;SDS011;14565;48.626;8.978;2022-12-16T16:58:48;21.48;;;10.52;;
27025;SDS011;14565;48.626;8.978;2022-12-16T17:01:33;18.60;;;10.32;;
27025;SDS011;14565;48.626;8.978;2022-12-16T17:04:17;19.50;;;10.27;;
27025;SDS011;14565;48.626;8.978;2022-12-16T17:07:02;23.40;;;12.43;;
27025;SDS011;14565;48.626;8.978;2022-12-16T17:09:46;23.70;;;11.95;;
27025;SDS011;14565;48.626;8.978;2022-12-16T17:12:31;21.38;;;10.57;;
27025;SDS011;14565;48.626;8.978;2022-12-16T17:15:20;21.13;;;11.25;;
27025;SDS011;14565;48.626;8.978;2022-12-16T17:18:05;28.75;;;13.90;;
27025;SDS011;14565;48.626;8.978;2022-12-16T17:20:50;19.73;;;10.02;;
27025;SDS011;14565;48.626;8.978;2022-12-16T17:23:35;20.10;;;10.00;;
27025;SDS011;14565;48.626;8.978;2022-12-16T17:26:19;35.63;;;14.02;;
27025;SDS011;14565;48.626;8.978;2022-12-16T17:29:04;19.27;;;10.55;;
27025;SDS011;14565;48.626;8.978;2022-12-16T17:31:49;20.08;;;10.77;;
27025;SDS011;14565;48.626;8.978;2022-12-16T17:34:34;43.80;;;18.55;;
27025;SDS011;14565;48.626;8.978;2022-12-16T17:37:18;48.00;;;21.05;;
27025;SDS011;14565;48.626;8.978;2022-12-16T17:40:03;48.45;;;20.85;;
27025;SDS011;14565;48.626;8.978;2022-12-16T17:42:50;35.30;;;15.60;;
27025;SDS011;14565;48.626;8.978;2022-12-16T17:45:34;22.33;;;12.05;;
27025;SDS011;14565;48.626;8.978;2022-12-16T17:48:19;18.98;;;9.80;;
27025;SDS011;14565;48.626;8.978;2022-12-16T17:51:03;24.13;;;10.80;;
27025;SDS011;14565;48.626;8.978;2022-12-16T17:53:48;20.83;;;10.98;;
27025;SDS011;14565;48.626;8.978;2022-12-16T17:56:33;18.17;;;10.45;;
27025;SDS011;14565;48.626;8.978;2022-12-16T17:59:17;20.92;;;11.15;;